createdAt,value
2022-09-24T00:02:05.205Z,2.17
2022-09-24T00:07:07.251Z,2.60
2022-09-24T00:12:13.106Z,3.13
2022-09-24T00:17:14.624Z,3.63
2022-09-24T00:22:16.092Z,3.83
2022-09-24T00:27:17.551Z,2.30
2022-09-24T00:32:19.010Z,2.10
2022-09-24T00:37:20.805Z,2.00
2022-09-24T00:42:22.924Z,1.98
2022-09-24T00:47:26.175Z,2.17
2022-09-24T00:52:27.752Z,1.65
2022-09-24T00:57:29.266Z,1.85
2022-09-24T01:02:31.390Z,2.00
2022-09-24T01:07:32.964Z,2.35
2022-09-24T01:12:34.512Z,2.20
2022-09-24T01:17:56.690Z,2.05
2022-09-24T01:23:17.186Z,1.65
2022-09-24T01:28:24.617Z,1.63
2022-09-24T01:33:28.347Z,1.75
2022-09-24T01:38:31.192Z,2.05
2022-09-24T01:43:33.120Z,1.83
2022-09-24T01:48:37.769Z,1.83
2022-09-24T01:53:48.747Z,1.40
2022-09-24T01:58:53.374Z,1.80
2022-09-24T02:03:58.805Z,1.65
2022-09-24T02:09:00.319Z,1.52
2022-09-24T02:14:13.669Z,1.88
2022-09-24T02:19:27.789Z,1.90
2022-09-24T02:24:52.263Z,1.52
2022-09-24T02:29:53.761Z,1.65
2022-09-24T02:34:57.826Z,1.65
2022-09-24T02:39:59.301Z,1.92
2022-09-24T02:45:00.832Z,1.98
2022-09-24T02:50:02.736Z,2.05
2022-09-24T02:55:05.052Z,1.80
2022-09-24T03:00:06.822Z,2.17
2022-09-24T03:05:08.490Z,1.63
2022-09-24T03:10:10.317Z,1.80
2022-09-24T03:15:11.903Z,1.83
2022-09-24T03:20:13.406Z,2.15
2022-09-24T03:25:15.032Z,1.80
2022-09-24T03:30:35.186Z,2.47
2022-09-24T03:35:36.667Z,1.60
2022-09-24T03:40:38.196Z,1.95
2022-09-24T03:45:39.717Z,1.55
2022-09-24T03:50:41.202Z,1.45
2022-09-24T03:55:43.844Z,1.92
2022-09-24T04:00:45.347Z,1.88
2022-09-24T04:05:47.078Z,1.90
2022-09-24T04:10:48.978Z,1.70
2022-09-24T04:15:51.800Z,1.65
2022-09-24T04:20:57.679Z,2.10
2022-09-24T04:26:02.403Z,1.88
2022-09-24T04:31:04.287Z,1.80
2022-09-24T04:36:05.815Z,1.92
2022-09-24T04:41:07.681Z,1.95
2022-09-24T04:46:13.048Z,2.10
2022-09-24T04:51:14.585Z,2.00
2022-09-24T04:56:16.054Z,2.30
2022-09-24T05:01:17.726Z,1.80
2022-09-24T05:06:19.246Z,1.60
2022-09-24T05:11:20.726Z,1.55
2022-09-24T05:16:22.703Z,1.40
2022-09-24T05:21:24.307Z,2.03
2022-09-24T05:26:44.156Z,2.03
2022-09-24T05:31:45.693Z,1.80
2022-09-24T05:36:47.240Z,1.63
2022-09-24T05:41:48.770Z,1.67
2022-09-24T05:46:51.079Z,1.92
2022-09-24T05:51:52.603Z,1.38
2022-09-24T05:56:54.095Z,2.13
2022-09-24T06:01:55.647Z,2.05
2022-09-24T06:06:57.135Z,1.85
2022-09-24T06:11:58.947Z,2.10
2022-09-24T06:17:00.462Z,2.20
2022-09-24T06:22:02.248Z,2.10
2022-09-24T06:27:03.812Z,2.30
2022-09-24T06:32:05.304Z,2.88
2022-09-24T06:37:06.760Z,2.83
2022-09-24T06:42:08.636Z,2.13
2022-09-24T06:53:13.073Z,1.85
2022-09-24T06:58:20.158Z,2.28
2022-09-24T07:03:22.379Z,1.77
2022-09-24T07:08:23.830Z,2.25
2022-09-24T07:13:25.262Z,1.95
2022-09-24T07:18:26.977Z,2.00
2022-09-24T07:23:28.456Z,2.03
2022-09-24T07:28:29.904Z,1.80
2022-09-24T07:33:31.965Z,2.03
2022-09-24T07:38:34.186Z,1.67
2022-09-24T07:43:35.619Z,1.88
2022-09-24T07:48:37.033Z,2.22
2022-09-24T07:53:38.561Z,1.70
2022-09-24T07:58:40.057Z,2.00
2022-09-24T08:03:41.532Z,1.65
2022-09-24T08:08:43.879Z,2.05
2022-09-24T08:13:45.625Z,1.52
2022-09-24T08:18:47.279Z,1.75
2022-09-24T08:23:48.752Z,1.75
2022-09-24T08:28:51.877Z,1.75
2022-09-24T08:33:53.320Z,1.88
2022-09-24T08:38:55.346Z,1.60
2022-09-24T08:44:05.390Z,1.80
2022-09-24T08:49:07.877Z,1.50
2022-09-24T08:54:12.722Z,1.50
2022-09-24T08:59:40.507Z,1.33
2022-09-24T09:04:58.021Z,1.30
2022-09-24T09:10:11.757Z,1.42
2022-09-24T09:15:19.237Z,1.35
2022-09-24T09:20:36.054Z,1.67
2022-09-24T09:25:37.539Z,1.40
2022-09-24T09:30:43.670Z,1.67
2022-09-24T09:35:45.205Z,1.15
2022-09-24T09:41:06.782Z,1.55
2022-09-24T09:46:15.280Z,1.92
2022-09-24T09:51:22.381Z,1.40
2022-09-24T09:56:44.853Z,1.50
2022-09-24T10:01:47.828Z,1.50
2022-09-24T10:06:49.367Z,1.60
2022-09-24T10:11:50.793Z,1.77
2022-09-24T10:16:54.117Z,1.60
2022-09-24T10:21:57.570Z,1.77
2022-09-24T10:26:59.360Z,1.60
2022-09-24T10:32:01.657Z,1.58
2022-09-24T10:37:15.004Z,1.42
2022-09-24T10:42:26.314Z,1.40
2022-09-24T10:47:50.809Z,0.98
2022-09-24T10:53:01.787Z,0.93
2022-09-24T10:58:23.160Z,1.10
2022-09-24T11:03:43.178Z,1.05
2022-09-24T11:08:47.398Z,1.75
2022-09-24T11:14:01.631Z,1.27
2022-09-24T11:19:06.577Z,1.30
2022-09-24T11:24:17.007Z,1.35
2022-09-24T11:29:18.661Z,1.08
2022-09-24T11:34:50.629Z,1.05
2022-09-24T11:39:52.524Z,1.30
2022-09-24T11:45:04.098Z,1.10
2022-09-24T11:50:13.235Z,1.15
2022-09-24T11:55:14.695Z,0.90
2022-09-24T12:00:18.006Z,1.00
2022-09-24T12:05:39.585Z,1.13
2022-09-24T12:10:47.100Z,1.05
2022-09-24T12:15:51.754Z,1.15
2022-09-24T12:20:57.041Z,1.00
2022-09-24T12:25:59.601Z,0.90
2022-09-24T12:31:21.048Z,0.98
2022-09-24T12:36:37.773Z,1.25
2022-09-24T12:41:41.318Z,1.30
2022-09-24T12:46:44.588Z,1.20
2022-09-24T12:51:46.220Z,0.95
2022-09-24T12:56:47.657Z,1.40
2022-09-24T13:01:49.248Z,1.35
2022-09-24T13:06:51.265Z,1.30
2022-09-24T13:12:04.307Z,1.38
2022-09-24T13:17:06.492Z,1.20
2022-09-24T13:22:26.374Z,1.20
2022-09-24T13:27:30.786Z,1.50
2022-09-24T13:32:52.453Z,1.45
2022-09-24T13:37:55.892Z,1.38
2022-09-24T13:42:57.377Z,1.30
2022-09-24T13:48:05.425Z,1.60
2022-09-24T13:53:24.610Z,1.05
2022-09-24T13:58:30.158Z,1.10
2022-09-24T14:03:33.479Z,1.75
2022-09-24T14:08:35.333Z,1.20
2022-09-24T14:13:46.045Z,1.58
2022-09-24T14:18:48.155Z,1.30
2022-09-24T14:23:53.253Z,1.13
2022-09-24T14:28:55.026Z,1.30
2022-09-24T14:33:56.605Z,1.17
2022-09-24T14:39:00.658Z,0.98
2022-09-24T14:44:02.714Z,1.40
2022-09-24T14:49:18.028Z,1.50
2022-09-24T14:54:28.819Z,1.40
2022-09-24T14:59:31.577Z,1.00
2022-09-24T15:04:33.193Z,1.50
2022-09-24T15:09:34.654Z,1.25
2022-09-24T15:14:36.815Z,1.40
2022-09-24T15:19:43.069Z,1.60
2022-09-24T15:24:44.567Z,1.30
2022-09-24T15:29:46.040Z,1.40
2022-09-24T15:34:47.954Z,2.08
2022-09-24T15:39:49.780Z,1.50
2022-09-24T15:44:51.281Z,1.60
2022-09-24T15:49:52.750Z,1.52
2022-09-24T15:54:55.118Z,1.60
2022-09-24T15:59:56.546Z,1.30
2022-09-24T16:05:02.818Z,2.35
2022-09-24T16:10:05.706Z,2.67
2022-09-24T16:15:07.448Z,3.42
2022-09-24T16:20:10.044Z,3.05
2022-09-24T16:25:11.481Z,2.42
2022-09-24T16:30:13.293Z,2.47
2022-09-24T16:35:14.818Z,1.90
2022-09-24T16:40:16.333Z,1.90
2022-09-24T16:45:18.183Z,1.98
2022-09-24T16:50:20.294Z,2.08
2022-09-24T16:55:24.198Z,2.25
2022-09-24T17:00:25.641Z,2.30
2022-09-24T17:05:27.109Z,1.80
2022-09-24T17:10:28.633Z,1.23
2022-09-24T17:15:30.163Z,1.35
2022-09-24T17:20:31.730Z,1.42
2022-09-24T17:25:33.194Z,1.40
2022-09-24T17:30:34.679Z,1.17
2022-09-24T17:35:36.235Z,0.95
2022-09-24T17:40:37.678Z,0.90
2022-09-24T17:45:39.579Z,1.20
2022-09-24T17:50:43.266Z,1.50
2022-09-24T17:55:48.788Z,1.30
2022-09-24T18:00:50.918Z,1.40
2022-09-24T18:05:58.928Z,1.60
2022-09-24T18:11:06.492Z,1.60
2022-09-24T18:16:09.695Z,1.50
2022-09-24T18:21:14.030Z,1.35
2022-09-24T18:26:19.777Z,0.93
2022-09-24T18:31:22.108Z,1.23
2022-09-24T18:36:25.576Z,1.13
2022-09-24T18:41:27.955Z,1.33
2022-09-24T18:46:30.777Z,1.33
2022-09-24T18:51:33.328Z,1.10
2022-09-24T18:56:34.886Z,1.35
2022-09-24T19:01:37.323Z,1.00
2022-09-24T19:06:40.071Z,1.30
2022-09-24T19:11:42.082Z,1.00
2022-09-24T19:16:44.359Z,1.05
2022-09-24T19:21:45.841Z,1.30
2022-09-24T19:26:47.349Z,1.00
2022-09-24T19:31:51.522Z,0.80
2022-09-24T19:36:54.996Z,1.00
2022-09-24T19:41:56.450Z,1.00
2022-09-24T19:46:57.878Z,1.08
2022-09-24T19:51:59.298Z,1.10
2022-09-24T19:57:01.179Z,0.98
2022-09-24T20:02:02.982Z,1.23
2022-09-24T20:07:06.126Z,1.20
2022-09-24T20:12:07.654Z,0.95
2022-09-24T20:17:09.830Z,1.08
2022-09-24T20:22:15.233Z,0.90
2022-09-24T20:27:37.406Z,1.10
2022-09-24T20:32:38.844Z,1.10
2022-09-24T20:37:40.413Z,1.00
2022-09-24T20:42:41.877Z,1.02
2022-09-24T20:47:43.322Z,1.02
2022-09-24T20:52:45.631Z,1.08
2022-09-24T20:57:47.170Z,1.23
2022-09-24T21:02:48.645Z,1.40
2022-09-24T21:07:50.133Z,1.35
2022-09-24T21:12:51.566Z,1.33
2022-09-24T21:18:18.327Z,1.60
2022-09-24T21:23:14.714Z,1.48
2022-09-24T21:28:16.133Z,1.63
2022-09-24T21:33:17.585Z,1.70
2022-09-24T21:38:19.850Z,1.20
2022-09-24T21:43:26.847Z,1.65
2022-09-24T21:48:30.750Z,1.58
2022-09-24T21:53:32.968Z,1.80
2022-09-24T21:58:34.745Z,1.30
2022-09-24T22:03:36.167Z,1.35
2022-09-24T22:08:38.096Z,1.70
2022-09-24T22:13:39.891Z,1.60
2022-09-24T22:18:41.318Z,1.77
2022-09-24T22:23:42.815Z,1.30
2022-09-24T22:28:44.772Z,1.38
2022-09-24T22:34:04.955Z,1.20
2022-09-24T22:39:07.148Z,1.07
2022-09-24T22:44:08.980Z,1.15
2022-09-24T22:49:10.877Z,1.17
2022-09-24T22:54:13.100Z,1.30
2022-09-24T22:59:14.568Z,1.33
2022-09-24T23:04:16.025Z,1.20
2022-09-24T23:09:17.494Z,1.25
2022-09-24T23:14:18.966Z,1.10
2022-09-24T23:19:20.403Z,1.45
2022-09-24T23:24:22.115Z,0.95
2022-09-24T23:29:24.707Z,1.35
2022-09-24T23:34:26.213Z,1.27
2022-09-24T23:39:28.059Z,1.30
2022-09-24T23:44:29.624Z,1.35
2022-09-24T23:49:31.049Z,1.50
2022-09-24T23:54:32.469Z,1.40
2022-09-24T23:59:34.626Z,1.10
